Andale, Kansas
Current Conditions -  °F | °C
As of 12:53 AM on Friday 28 Nov 2014 (Local Time) from KICT Reporting Station
Few Clouds Few Clouds  
Wind Chill: -2°   Ceiling: Unl
Heat Index:   Visibility: 10mi
Dew Point: -5°   Wind: 16mph
Humidity: 55%   Direction: 180°S
Pressure: 30.12"   Gusts: NA
Location:  37.79°N, 97.63°W
Report Text: KICT 280653Z 18014KT 10SM FEW250 03/M05 A3012 RMK AO2 SLP205 T00331050
Loading
Personal Weather Stations






























Interactive Weather Map New forecast layout! Learn more

10-Day Weather Forecast

Advertisements
Track Severe Weather on mobile